createdAt,value
2018-05-04T00:00:30.074Z,101460.23
2018-05-04T00:02:33.517Z,101460.58
2018-05-04T00:04:36.841Z,101465.89
2018-05-04T00:06:40.172Z,101454.39
2018-05-04T00:08:43.558Z,101460.73
2018-05-04T00:10:46.898Z,101453.84
2018-05-04T00:12:50.508Z,101461.11
2018-05-04T00:14:53.864Z,101454.88
2018-05-04T00:16:57.162Z,101449.70
2018-05-04T00:19:01.284Z,101456.59
2018-05-04T00:21:04.604Z,101445.33
2018-05-04T00:23:07.915Z,101436.73
2018-05-04T00:25:11.238Z,101435.05
2018-05-04T00:27:15.351Z,101437.36
2018-05-04T00:29:19.425Z,101439.61
2018-05-04T00:31:22.828Z,101439.45
2018-05-04T00:33:26.191Z,101442.31
2018-05-04T00:35:29.635Z,101443.19
2018-05-04T00:37:33.835Z,101450.13
2018-05-04T00:39:37.214Z,101445.10
2018-05-04T00:41:40.518Z,101450.05
2018-05-04T00:43:43.840Z,101449.61
2018-05-04T00:45:47.952Z,101457.17
2018-05-04T00:47:52.025Z,101456.31
2018-05-04T00:49:56.115Z,101459.02
2018-05-04T00:51:59.440Z,101456.69
2018-05-04T00:54:20.353Z,101457.71
2018-05-04T00:56:23.646Z,101449.45
2018-05-04T00:58:27.774Z,101452.55
2018-05-04T01:00:31.106Z,101447.68
2018-05-04T01:02:34.423Z,101451.75
2018-05-04T01:04:37.852Z,101449.88
2018-05-04T01:06:41.182Z,101457.39
2018-05-04T01:08:45.718Z,101462.55
2018-05-04T01:10:49.191Z,101465.78
2018-05-04T01:12:58.286Z,101462.28
2018-05-04T01:15:01.589Z,101462.52
2018-05-04T01:17:05.017Z,101459.69
2018-05-04T01:19:08.326Z,101459.69
2018-05-04T01:21:11.672Z,101465.48
2018-05-04T01:23:15.121Z,101459.55
2018-05-04T01:25:18.557Z,101458.22
2018-05-04T01:27:21.885Z,101463.72
2018-05-04T01:31:48.350Z,101470.22
2018-05-04T01:33:51.694Z,101475.32
2018-05-04T01:35:55.024Z,101459.86
2018-05-04T01:37:58.438Z,101480.44
2018-05-04T01:40:01.796Z,101488.43
2018-05-04T01:42:05.143Z,101495.87
2018-05-04T01:44:08.528Z,101499.62
2018-05-04T01:46:12.598Z,101498.73
2018-05-04T01:48:15.953Z,101498.40
2018-05-04T01:50:19.275Z,101503.27
2018-05-04T01:52:22.589Z,101494.27
2018-05-04T01:54:25.942Z,101498.39
2018-05-04T01:56:30.303Z,101497.34
2018-05-04T01:58:34.412Z,101493.56
2018-05-04T02:00:37.821Z,101485.67
2018-05-04T02:02:41.900Z,101495.67
2018-05-04T02:04:45.225Z,101501.18
2018-05-04T02:06:49.275Z,101501.85
2018-05-04T02:08:52.588Z,101504.33
2018-05-04T02:10:55.885Z,101500.23
2018-05-04T02:12:59.998Z,101503.30
2018-05-04T02:15:03.358Z,101512.53
2018-05-04T02:17:06.683Z,101508.91
2018-05-04T02:19:10.226Z,101515.36
2018-05-04T02:21:13.557Z,101516.92
2018-05-04T02:23:16.865Z,101508.81
2018-05-04T02:25:20.314Z,101506.55
2018-05-04T02:27:23.670Z,101504.66
2018-05-04T02:29:27.006Z,101503.78
2018-05-04T02:31:30.310Z,101498.34
2018-05-04T02:33:33.591Z,101500.00
2018-05-04T02:35:37.247Z,101502.36
2018-05-04T02:37:40.546Z,101502.53
2018-05-04T02:39:44.634Z,101499.92
2018-05-04T02:41:48.000Z,101503.95
2018-05-04T02:43:51.383Z,101509.13
2018-05-04T02:45:54.706Z,101504.81
2018-05-04T02:47:58.089Z,101499.16
2018-05-04T02:50:01.429Z,101495.15
2018-05-04T02:52:04.773Z,101485.72
2018-05-04T02:54:08.158Z,101492.59
2018-05-04T02:56:11.556Z,101489.05
2018-05-04T02:58:14.866Z,101494.10
2018-05-04T03:00:18.950Z,101490.83
2018-05-04T03:02:22.329Z,101486.68
2018-05-04T03:04:26.407Z,101485.25
2018-05-04T03:06:29.720Z,101484.26
2018-05-04T03:08:33.028Z,101485.36
2018-05-04T03:10:36.411Z,101479.27
2018-05-04T03:12:39.695Z,101475.11
2018-05-04T03:14:43.018Z,101472.73
2018-05-04T03:16:46.508Z,101473.25
2018-05-04T03:18:49.903Z,101476.42
2018-05-04T03:20:53.318Z,101463.07
2018-05-04T03:22:56.633Z,101467.53
2018-05-04T03:24:59.941Z,101472.20
2018-05-04T03:27:03.316Z,101467.09
2018-05-04T03:29:06.686Z,101467.37
2018-05-04T03:31:09.981Z,101461.83
2018-05-04T03:33:14.191Z,101466.09
2018-05-04T03:35:17.506Z,101463.60
2018-05-04T03:37:20.817Z,101466.88
2018-05-04T03:39:24.281Z,101467.26
2018-05-04T03:41:27.693Z,101468.03
2018-05-04T03:43:31.012Z,101462.88
2018-05-04T03:45:34.393Z,101462.77
2018-05-04T03:47:37.806Z,101462.12
2018-05-04T03:49:41.104Z,101464.28
2018-05-04T03:51:45.328Z,101464.77
2018-05-04T03:53:48.671Z,101467.54
2018-05-04T03:55:51.992Z,101464.83
2018-05-04T03:58:13.026Z,101469.48
2018-05-04T04:00:33.829Z,101470.53
2018-05-04T04:02:55.392Z,101475.92
2018-05-04T04:04:58.816Z,101477.69
2018-05-04T04:07:02.128Z,101478.46
2018-05-04T04:09:07.246Z,101478.91
2018-05-04T04:11:10.571Z,101480.08
2018-05-04T04:13:14.828Z,101466.27
2018-05-04T04:15:18.210Z,101484.73
2018-05-04T04:17:21.570Z,101487.63
2018-05-04T04:19:24.923Z,101480.24
2018-05-04T04:21:28.267Z,101476.31
2018-05-04T04:23:32.370Z,101483.52
2018-05-04T04:25:36.461Z,101482.96
2018-05-04T04:27:39.803Z,101489.16
2018-05-04T04:29:43.130Z,101484.50
2018-05-04T04:31:46.443Z,101490.38
2018-05-04T04:33:50.542Z,101490.37
2018-05-04T04:35:54.737Z,101493.64
2018-05-04T04:37:58.035Z,101494.25
2018-05-04T04:40:01.437Z,101498.16
2018-05-04T04:42:04.890Z,101509.47
2018-05-04T04:44:08.229Z,101504.94
2018-05-04T04:46:11.588Z,101507.92
2018-05-04T04:48:15.834Z,101509.88
2018-05-04T04:50:19.221Z,101520.92
2018-05-04T04:52:22.883Z,101519.56
2018-05-04T04:54:26.931Z,101525.92
2018-05-04T04:56:30.361Z,101522.66
2018-05-04T04:58:33.702Z,101526.00
2018-05-04T05:00:37.109Z,101528.91
2018-05-04T05:02:40.496Z,101525.17
2018-05-04T05:04:44.879Z,101525.88
2018-05-04T05:06:49.107Z,101516.20
2018-05-04T05:08:52.513Z,101531.63
2018-05-04T05:10:55.838Z,101524.84
2018-05-04T05:12:59.171Z,101537.94
2018-05-04T05:15:02.467Z,101534.62
2018-05-04T05:17:05.793Z,101534.98
2018-05-04T05:19:09.971Z,101533.27
2018-05-04T05:21:13.330Z,101532.47
2018-05-04T05:23:17.002Z,101540.81
2018-05-04T05:25:20.411Z,101537.10
2018-05-04T05:27:24.554Z,101546.52
2018-05-04T05:29:27.917Z,101543.75
2018-05-04T05:31:31.353Z,101546.67
2018-05-04T05:33:34.829Z,101540.27
2018-05-04T05:35:38.217Z,101552.59
2018-05-04T05:37:41.595Z,101549.63
2018-05-04T05:39:45.729Z,101549.16
2018-05-04T05:41:49.082Z,101558.14
2018-05-04T05:43:53.286Z,101557.66
2018-05-04T05:45:57.503Z,101552.89
2018-05-04T05:48:01.638Z,101560.31
2018-05-04T05:50:05.777Z,101551.86
2018-05-04T05:54:13.433Z,101556.65
2018-05-04T05:56:16.881Z,101557.09
2018-05-04T05:58:21.120Z,101552.31
2018-05-04T06:00:24.626Z,101560.30
2018-05-04T06:02:28.019Z,101568.52
2018-05-04T06:04:31.350Z,101557.56
2018-05-04T06:06:34.737Z,101578.06
2018-05-04T06:08:38.086Z,101574.45
2018-05-04T06:10:41.453Z,101555.23
2018-05-04T06:12:44.855Z,101564.53
2018-05-04T06:14:48.255Z,101570.80
2018-05-04T06:16:51.653Z,101551.95
2018-05-04T06:18:54.969Z,101572.79
2018-05-04T06:20:59.239Z,101563.31
2018-05-04T06:23:02.633Z,101562.13
2018-05-04T06:25:06.046Z,101547.27
2018-05-04T06:27:09.344Z,101559.82
2018-05-04T06:29:12.709Z,101549.80
2018-05-04T06:31:16.048Z,101558.89
2018-05-04T06:33:19.433Z,101563.27
2018-05-04T06:35:22.898Z,101570.70
2018-05-04T06:37:26.264Z,101541.95
2018-05-04T06:39:29.640Z,101573.30
2018-05-04T06:41:33.742Z,101571.28
2018-05-04T06:43:37.125Z,101569.73
2018-05-04T06:45:41.293Z,101573.81
2018-05-04T06:47:44.608Z,101575.80
2018-05-04T06:49:47.928Z,101571.00
2018-05-04T06:51:51.278Z,101573.97
2018-05-04T06:53:54.671Z,101569.95
2018-05-04T06:55:57.986Z,101580.95
2018-05-04T06:58:01.360Z,101582.53
2018-05-04T07:00:05.459Z,101583.66
2018-05-04T07:02:08.861Z,101589.20
2018-05-04T07:04:12.209Z,101591.86
2018-05-04T07:06:15.582Z,101580.36
2018-05-04T07:08:18.955Z,101590.58
2018-05-04T07:10:22.336Z,101592.52
2018-05-04T07:12:25.804Z,101588.57
2018-05-04T07:14:29.189Z,101593.92
2018-05-04T07:16:32.584Z,101589.23
2018-05-04T07:18:35.928Z,101591.73
2018-05-04T07:20:39.237Z,101589.58
2018-05-04T07:22:42.604Z,101586.58
2018-05-04T07:24:45.918Z,101582.55
2018-05-04T07:26:49.993Z,101577.48
2018-05-04T07:28:53.354Z,101579.86
2018-05-04T07:30:56.728Z,101575.24
2018-05-04T07:33:00.075Z,101584.09
2018-05-04T07:35:03.427Z,101580.23
2018-05-04T07:37:06.825Z,101580.66
2018-05-04T07:39:10.191Z,101580.30
2018-05-04T07:41:13.555Z,101584.34
2018-05-04T07:43:17.015Z,101583.59
2018-05-04T07:45:20.380Z,101580.68
2018-05-04T07:47:24.713Z,101583.88
2018-05-04T07:49:28.128Z,101580.77
2018-05-04T07:51:31.659Z,101577.36
2018-05-04T07:53:35.096Z,101579.58
2018-05-04T07:55:38.499Z,101584.52
2018-05-04T07:57:41.869Z,101575.28
2018-05-04T07:59:45.236Z,101585.66
2018-05-04T08:01:49.670Z,101589.45
2018-05-04T08:03:53.048Z,101581.50
2018-05-04T08:05:57.184Z,101582.82
2018-05-04T08:08:00.546Z,101584.47
2018-05-04T08:10:03.946Z,101579.99
2018-05-04T08:12:07.284Z,101583.77
2018-05-04T08:14:10.632Z,101582.91
2018-05-04T08:16:14.055Z,101586.17
2018-05-04T08:18:17.409Z,101590.97
2018-05-04T08:20:20.803Z,101588.73
2018-05-04T08:22:24.223Z,101588.30
2018-05-04T08:26:37.999Z,101591.70
2018-05-04T08:28:41.375Z,101589.58
2018-05-04T08:30:44.761Z,101587.75
2018-05-04T08:32:48.969Z,101583.85
2018-05-04T08:34:52.404Z,101588.61
2018-05-04T08:36:55.904Z,101586.52
2018-05-04T08:38:59.323Z,101591.86
2018-05-04T08:41:04.287Z,101588.91
2018-05-04T08:43:08.543Z,101595.39
2018-05-04T08:45:12.311Z,101595.98
2018-05-04T08:47:15.665Z,101591.95
2018-05-04T08:49:19.812Z,101588.94
2018-05-04T08:51:23.242Z,101589.60
2018-05-04T08:53:26.642Z,101576.79
2018-05-04T08:55:30.097Z,101584.30
2018-05-04T08:57:33.478Z,101580.23
2018-05-04T08:59:36.881Z,101581.17
2018-05-04T09:01:40.300Z,101574.24
2018-05-04T09:03:43.711Z,101580.45
2018-05-04T09:05:47.123Z,101582.37
2018-05-04T09:07:50.545Z,101559.72
2018-05-04T09:09:54.737Z,101585.33
2018-05-04T09:11:58.163Z,101583.98
2018-05-04T09:14:01.601Z,101584.02
2018-05-04T09:16:05.038Z,101581.46
2018-05-04T09:18:08.422Z,101574.88
2018-05-04T09:20:12.112Z,101574.34
2018-05-04T09:22:15.495Z,101582.91
2018-05-04T09:24:19.015Z,101578.12
2018-05-04T09:26:22.577Z,101577.13
2018-05-04T09:28:27.023Z,101574.47
2018-05-04T09:30:30.446Z,101574.91
2018-05-04T09:32:33.851Z,101570.11
2018-05-04T09:34:37.189Z,101560.78
2018-05-04T09:36:40.603Z,101571.77
2018-05-04T09:38:44.132Z,101571.87
2018-05-04T09:40:47.476Z,101570.06
2018-05-04T09:42:51.004Z,101568.42
2018-05-04T09:44:54.222Z,101575.75
2018-05-04T09:46:57.608Z,101577.34
2018-05-04T09:49:00.990Z,101564.83
2018-05-04T09:51:05.195Z,101573.09
2018-05-04T09:53:08.559Z,101549.10
2018-05-04T09:55:12.052Z,101571.76
2018-05-04T09:57:16.542Z,101578.93
2018-05-04T09:59:20.044Z,101577.10
2018-05-04T10:01:23.414Z,101577.05
2018-05-04T10:03:26.831Z,101566.73
2018-05-04T10:05:30.240Z,101570.34
2018-05-04T10:07:33.603Z,101562.56
2018-05-04T10:09:37.026Z,101562.94
2018-05-04T10:11:40.440Z,101547.20
2018-05-04T10:13:43.821Z,101557.38
2018-05-04T10:15:47.304Z,101542.37
2018-05-04T10:17:50.647Z,101562.41
2018-05-04T10:19:54.798Z,101559.79
2018-05-04T10:21:58.232Z,101561.22
2018-05-04T10:24:01.732Z,101562.06
2018-05-04T10:26:05.305Z,101558.25
2018-05-04T10:28:08.721Z,101554.16
2018-05-04T10:30:26.838Z,101530.43
2018-05-04T10:32:30.203Z,101525.30
2018-05-04T10:34:33.551Z,101551.71
2018-05-04T10:36:37.653Z,101551.44
2018-05-04T10:38:41.234Z,101544.16
2018-05-04T10:40:45.262Z,101540.77
2018-05-04T10:42:49.371Z,101550.45
2018-05-04T10:44:52.748Z,101547.45
2018-05-04T10:47:04.976Z,101541.41
2018-05-04T10:49:08.439Z,101547.16
2018-05-04T10:51:11.810Z,101544.53
2018-05-04T10:53:15.151Z,101548.73
2018-05-04T10:55:18.596Z,101540.91
2018-05-04T10:57:22.241Z,101534.93
2018-05-04T10:59:26.047Z,101533.61
2018-05-04T11:01:29.586Z,101542.44
2018-05-04T11:03:32.984Z,101546.12
2018-05-04T11:05:36.394Z,101542.83
2018-05-04T11:07:39.793Z,101546.26
2018-05-04T11:09:43.146Z,101536.09
2018-05-04T11:11:46.578Z,101534.91
2018-05-04T11:13:49.968Z,101519.76
2018-05-04T11:15:53.325Z,101543.95
2018-05-04T11:17:56.767Z,101536.03
2018-05-04T11:20:00.187Z,101550.02
2018-05-04T11:22:03.547Z,101543.14
2018-05-04T11:24:07.088Z,101544.82
2018-05-04T11:26:11.281Z,101551.45
2018-05-04T11:28:15.079Z,101539.39
2018-05-04T11:30:18.593Z,101540.50
2018-05-04T11:32:24.141Z,101542.28
2018-05-04T11:34:28.315Z,101546.95
2018-05-04T11:36:31.724Z,101539.94
2018-05-04T11:38:35.107Z,101546.06
2018-05-04T11:40:38.523Z,101531.96
2018-05-04T11:42:41.977Z,101541.77
2018-05-04T11:44:45.347Z,101547.86
2018-05-04T11:46:49.610Z,101543.88
2018-05-04T11:48:53.068Z,101542.11
2018-05-04T11:50:56.394Z,101546.25
2018-05-04T11:53:00.546Z,101542.11
2018-05-04T11:55:03.986Z,101547.32
2018-05-04T11:57:07.389Z,101545.37
2018-05-04T11:59:10.766Z,101544.00
2018-05-04T12:01:14.208Z,101544.11
2018-05-04T12:03:18.384Z,101543.59
2018-05-04T12:05:21.864Z,101520.66
2018-05-04T12:07:25.250Z,101552.95
2018-05-04T12:09:29.062Z,101514.47
2018-05-04T12:11:32.446Z,101538.32
2018-05-04T12:13:36.011Z,101523.72
2018-05-04T12:15:39.437Z,101541.33
2018-05-04T12:17:42.788Z,101541.73
2018-05-04T12:19:47.001Z,101542.45
2018-05-04T12:21:51.124Z,101542.21
2018-05-04T12:23:54.571Z,101544.76
2018-05-04T12:25:57.977Z,101546.68
2018-05-04T12:28:02.218Z,101541.18
2018-05-04T12:30:06.407Z,101556.16
2018-05-04T12:32:09.868Z,101536.64
2018-05-04T12:34:13.422Z,101553.55
2018-05-04T12:36:17.222Z,101536.86
2018-05-04T12:38:20.588Z,101547.48
2018-05-04T12:40:23.925Z,101545.55
2018-05-04T12:42:28.201Z,101546.03
2018-05-04T12:44:31.535Z,101548.89
2018-05-04T12:46:34.977Z,101551.13
2018-05-04T12:48:38.374Z,101551.77
2018-05-04T12:50:41.837Z,101554.59
2018-05-04T12:52:45.279Z,101553.56
2018-05-04T12:54:48.699Z,101558.50
2018-05-04T12:56:52.155Z,101554.31
2018-05-04T12:58:55.521Z,101553.25
2018-05-04T13:00:59.010Z,101551.59
2018-05-04T13:03:02.583Z,101555.80
2018-05-04T13:07:23.113Z,101542.77
2018-05-04T13:09:26.677Z,101550.03
2018-05-04T13:11:30.774Z,101550.53
2018-05-04T13:13:35.059Z,101548.56
2018-05-04T13:15:38.585Z,101545.72
2018-05-04T13:17:41.969Z,101552.64
2018-05-04T13:19:45.336Z,101547.62
2018-05-04T13:21:48.746Z,101546.59
2018-05-04T13:23:52.120Z,101544.39
2018-05-04T13:25:55.588Z,101538.63
2018-05-04T13:27:58.989Z,101530.26
2018-05-04T13:30:02.330Z,101520.98
2018-05-04T13:32:05.723Z,101504.06
2018-05-04T13:34:09.179Z,101549.08
2018-05-04T13:36:12.579Z,101530.70
2018-05-04T13:38:16.020Z,101527.42
2018-05-04T13:40:20.265Z,101531.77
2018-05-04T13:42:23.775Z,101533.46
2018-05-04T13:44:27.178Z,101525.13
2018-05-04T13:46:30.597Z,101535.97
2018-05-04T13:48:33.960Z,101538.89
2018-05-04T13:50:37.375Z,101533.05
2018-05-04T13:52:40.815Z,101529.53
2018-05-04T13:54:44.385Z,101542.83
2018-05-04T13:56:47.776Z,101531.36
2018-05-04T13:58:51.302Z,101524.32
2018-05-04T14:00:54.726Z,101531.53
2018-05-04T14:02:58.141Z,101531.44
2018-05-04T14:05:01.616Z,101531.66
2018-05-04T14:07:05.993Z,101539.67
2018-05-04T14:09:09.369Z,101528.86
2018-05-04T14:11:14.336Z,101521.87
2018-05-04T14:13:18.297Z,101526.16
2018-05-04T14:15:21.705Z,101530.73
2018-05-04T14:17:26.601Z,101537.43
2018-05-04T14:19:31.122Z,101538.07
2018-05-04T14:21:34.578Z,101529.31
2018-05-04T14:23:37.928Z,101519.62
2018-05-04T14:25:42.390Z,101524.73
2018-05-04T14:27:45.831Z,101523.41
2018-05-04T14:29:49.227Z,101526.05
2018-05-04T14:31:52.681Z,101512.70
2018-05-04T14:33:56.119Z,101520.95
2018-05-04T14:35:59.563Z,101519.60
2018-05-04T14:38:03.044Z,101508.65
2018-05-04T14:40:06.588Z,101516.01
2018-05-04T14:42:10.152Z,101525.08
2018-05-04T14:44:13.528Z,101527.69
2018-05-04T14:46:17.633Z,101523.12
2018-05-04T14:48:21.009Z,101518.36
2018-05-04T14:50:25.127Z,101523.05
2018-05-04T14:52:28.603Z,101523.50
2018-05-04T14:54:32.112Z,101516.31
2018-05-04T14:56:36.336Z,101520.38
2018-05-04T14:58:40.958Z,101517.20
2018-05-04T15:00:45.223Z,101520.38
2018-05-04T15:02:48.676Z,101525.64
2018-05-04T15:04:52.292Z,101528.40
2018-05-04T15:06:56.157Z,101519.30
2018-05-04T15:09:02.855Z,101528.91
2018-05-04T15:11:06.263Z,101521.03
2018-05-04T15:13:09.788Z,101526.16
2018-05-04T15:15:13.178Z,101530.30
2018-05-04T15:17:16.553Z,101541.00
2018-05-04T15:19:20.014Z,101528.75
2018-05-04T15:21:24.194Z,101530.17
2018-05-04T15:23:27.605Z,101531.09
2018-05-04T15:25:31.934Z,101531.57
2018-05-04T15:27:35.300Z,101523.53
2018-05-04T15:29:38.720Z,101525.97
2018-05-04T15:31:42.081Z,101527.22
2018-05-04T15:33:45.483Z,101532.30
2018-05-04T15:35:48.838Z,101523.31
2018-05-04T15:37:52.285Z,101526.70
2018-05-04T15:39:56.666Z,101517.45
2018-05-04T15:41:59.911Z,101524.30
2018-05-04T15:44:03.294Z,101519.06
2018-05-04T15:46:07.480Z,101521.00
2018-05-04T15:50:55.041Z,101521.95
2018-05-04T15:52:59.172Z,101523.27
2018-05-04T15:55:02.603Z,101516.52
2018-05-04T15:57:06.038Z,101513.30
2018-05-04T15:59:10.381Z,101526.06
2018-05-04T16:01:13.808Z,101528.87
2018-05-04T16:03:17.255Z,101527.09
2018-05-04T16:05:22.113Z,101524.87
2018-05-04T16:07:26.167Z,101527.02
2018-05-04T16:09:29.569Z,101527.61
2018-05-04T16:11:33.063Z,101519.57
2018-05-04T16:13:36.550Z,101527.44
2018-05-04T16:15:40.045Z,101535.83
2018-05-04T16:17:43.408Z,101529.88
2018-05-04T16:19:46.838Z,101524.89
2018-05-04T16:21:50.199Z,101527.66
2018-05-04T16:23:53.639Z,101512.20
2018-05-04T16:25:57.080Z,101517.44
2018-05-04T16:28:00.532Z,101522.33
2018-05-04T16:30:04.865Z,101515.92
2018-05-04T16:32:08.252Z,101516.33
2018-05-04T16:34:12.131Z,101519.69
2018-05-04T16:36:16.553Z,101523.73
2018-05-04T16:38:19.987Z,101518.21
2018-05-04T16:40:23.467Z,101499.62
2018-05-04T16:42:26.820Z,101511.70
2018-05-04T16:44:30.250Z,101517.02
2018-05-04T16:46:39.862Z,101524.39
2018-05-04T16:48:49.551Z,101515.64
2018-05-04T16:50:52.936Z,101511.91
2018-05-04T16:52:56.389Z,101523.83
2018-05-04T16:54:59.845Z,101516.45
2018-05-04T16:57:03.282Z,101526.45
2018-05-04T16:59:25.336Z,101523.62
2018-05-04T17:01:29.776Z,101529.90
2018-05-04T17:03:33.158Z,101520.91
2018-05-04T17:05:36.633Z,101526.13
2018-05-04T17:07:40.874Z,101536.36
2018-05-04T17:09:44.260Z,101534.42
2018-05-04T17:11:48.742Z,101541.31
2018-05-04T17:13:52.204Z,101544.29
2018-05-04T17:15:55.696Z,101544.70
2018-05-04T17:17:59.103Z,101541.03
2018-05-04T17:20:05.786Z,101545.55
2018-05-04T17:22:11.171Z,101547.55
2018-05-04T17:24:14.554Z,101547.77
2018-05-04T17:26:17.989Z,101551.19
2018-05-04T17:28:21.413Z,101550.38
2018-05-04T17:30:24.877Z,101551.70
2018-05-04T17:32:29.075Z,101557.12
2018-05-04T17:34:32.497Z,101546.84
2018-05-04T17:36:35.888Z,101550.48
2018-05-04T17:38:39.509Z,101542.32
2018-05-04T17:40:42.876Z,101541.53
2018-05-04T17:42:46.289Z,101552.06
2018-05-04T17:44:51.283Z,101548.20
2018-05-04T17:46:54.767Z,101547.56
2018-05-04T17:48:58.270Z,101548.45
2018-05-04T17:51:01.693Z,101547.89
2018-05-04T17:53:05.100Z,101550.69
2018-05-04T17:55:08.584Z,101549.70
2018-05-04T17:57:11.954Z,101548.54
2018-05-04T17:59:15.426Z,101559.25
2018-05-04T18:01:18.874Z,101567.41
2018-05-04T18:03:22.714Z,101552.02
2018-05-04T18:05:26.801Z,101573.18
2018-05-04T18:07:31.147Z,101570.17
2018-05-04T18:09:34.637Z,101562.89
2018-05-04T18:11:38.004Z,101560.92
2018-05-04T18:13:41.455Z,101569.74
2018-05-04T18:15:44.976Z,101565.63
2018-05-04T18:17:48.439Z,101570.41
2018-05-04T18:19:54.396Z,101571.98
2018-05-04T18:21:57.827Z,101568.13
2018-05-04T18:24:03.025Z,101573.83
2018-05-04T18:26:07.911Z,101571.23
2018-05-04T18:28:12.291Z,101578.17
2018-05-04T18:30:16.497Z,101573.56
2018-05-04T18:32:20.568Z,101584.55
2018-05-04T18:34:24.029Z,101579.16
2018-05-04T18:36:27.473Z,101586.48
2018-05-04T18:38:30.928Z,101592.84
2018-05-04T18:40:34.413Z,101597.18
2018-05-04T18:42:37.862Z,101591.28
2018-05-04T18:44:41.342Z,101596.59
2018-05-04T18:46:44.793Z,101598.05
2018-05-04T18:48:48.406Z,101601.62
2018-05-04T18:50:52.361Z,101604.60
2018-05-04T18:52:55.781Z,101602.08
2018-05-04T18:54:59.233Z,101603.00
2018-05-04T18:57:02.808Z,101604.09
2018-05-04T18:59:09.218Z,101607.30
2018-05-04T19:01:13.427Z,101608.44
2018-05-04T19:03:22.803Z,101609.13
2018-05-04T19:05:26.276Z,101613.05
2018-05-04T19:07:30.072Z,101617.77
2018-05-04T19:09:36.720Z,101622.00
2018-05-04T19:11:40.300Z,101621.57
2018-05-04T19:13:43.801Z,101627.31
2018-05-04T19:15:47.336Z,101628.29
2018-05-04T19:17:54.927Z,101636.20
2018-05-04T19:19:59.941Z,101624.66
2018-05-04T19:22:03.667Z,101637.97
2018-05-04T19:24:07.863Z,101638.00
2018-05-04T19:26:11.816Z,101638.84
2018-05-04T19:28:16.088Z,101648.72
2018-05-04T19:30:19.650Z,101642.44
2018-05-04T19:32:23.712Z,101652.98
2018-05-04T19:34:27.288Z,101649.45
2018-05-04T19:36:30.746Z,101654.86
2018-05-04T19:38:36.514Z,101655.10
2018-05-04T19:40:40.199Z,101657.66
2018-05-04T19:42:49.671Z,101666.77
2018-05-04T19:45:01.547Z,101669.38
2018-05-04T19:47:08.361Z,101665.67
2018-05-04T19:49:16.160Z,101675.31
2018-05-04T19:51:27.748Z,101676.53
2018-05-04T19:53:31.430Z,101676.97
2018-05-04T19:55:35.247Z,101680.23
2018-05-04T19:57:39.567Z,101682.30
2018-05-04T19:59:43.645Z,101682.80
2018-05-04T20:01:50.762Z,101687.47
2018-05-04T20:03:59.559Z,101691.13
2018-05-04T20:08:17.215Z,101691.26
2018-05-04T20:10:22.453Z,101690.94
2018-05-04T20:12:28.040Z,101689.94
2018-05-04T20:14:33.336Z,101693.44
2018-05-04T20:16:37.886Z,101692.70
2018-05-04T20:18:44.611Z,101691.78
2018-05-04T20:20:50.786Z,101692.19
2018-05-04T20:22:55.739Z,101689.47
2018-05-04T20:25:03.071Z,101690.57
2018-05-04T20:27:07.290Z,101687.36
2018-05-04T20:29:10.710Z,101681.25
2018-05-04T20:31:14.805Z,101691.93
2018-05-04T20:33:31.903Z,101696.53
2018-05-04T20:36:08.267Z,101701.17
2018-05-04T20:38:40.279Z,101700.73
2018-05-04T20:40:43.788Z,101699.47
2018-05-04T20:42:47.131Z,101698.66
2018-05-04T20:44:51.290Z,101703.35
2018-05-04T20:46:55.142Z,101700.52
2018-05-04T20:48:59.912Z,101703.14
2018-05-04T20:51:04.196Z,101712.88
2018-05-04T20:53:08.288Z,101710.17
2018-05-04T20:55:11.811Z,101702.62
2018-05-04T20:57:15.744Z,101709.27
2018-05-04T20:59:19.201Z,101711.56
2018-05-04T21:01:22.771Z,101711.89
2018-05-04T21:03:26.553Z,101714.15
2018-05-04T21:05:30.181Z,101712.14
2018-05-04T21:07:34.255Z,101710.97
2018-05-04T21:09:37.796Z,101710.09
2018-05-04T21:11:41.394Z,101710.09
2018-05-04T21:13:45.044Z,101703.47
2018-05-04T21:15:48.835Z,101714.02
2018-05-04T21:17:52.216Z,101716.61
2018-05-04T21:19:58.496Z,101708.97
2018-05-04T21:22:01.924Z,101704.09
2018-05-04T21:24:05.339Z,101704.55
2018-05-04T21:26:08.698Z,101697.34
2018-05-04T21:28:12.170Z,101702.94
2018-05-04T21:30:15.692Z,101701.81
2018-05-04T21:32:19.100Z,101702.94
2018-05-04T21:34:22.509Z,101707.64
2018-05-04T21:36:26.723Z,101706.20
2018-05-04T21:38:30.144Z,101702.98
2018-05-04T21:40:33.660Z,101705.23
2018-05-04T21:42:37.026Z,101710.86
2018-05-04T21:44:40.563Z,101715.45
2018-05-04T21:46:44.003Z,101717.26
2018-05-04T21:48:47.346Z,101709.38
2018-05-04T21:50:50.707Z,101711.22
2018-05-04T21:52:54.114Z,101708.88
2018-05-04T21:54:57.445Z,101719.86
2018-05-04T21:57:00.837Z,101711.72
2018-05-04T21:59:04.356Z,101711.44
2018-05-04T22:01:07.722Z,101710.83
2018-05-04T22:03:11.166Z,101709.64
2018-05-04T22:05:15.341Z,101709.97
2018-05-04T22:07:18.733Z,101707.91
2018-05-04T22:09:22.140Z,101706.93
2018-05-04T22:11:25.594Z,101707.81
2018-05-04T22:13:29.032Z,101712.60
2018-05-04T22:15:32.472Z,101710.05
2018-05-04T22:17:35.814Z,101717.69
2018-05-04T22:19:40.123Z,101721.22
2018-05-04T22:21:43.658Z,101719.09
2018-05-04T22:23:48.536Z,101720.38
2018-05-04T22:25:51.972Z,101720.05
2018-05-04T22:27:56.132Z,101715.25
2018-05-04T22:29:59.666Z,101727.53
2018-05-04T22:32:03.078Z,101719.33
2018-05-04T22:34:07.198Z,101724.60
2018-05-04T22:36:11.041Z,101728.02
2018-05-04T22:38:14.513Z,101730.95
2018-05-04T22:40:17.893Z,101734.64
2018-05-04T22:42:22.112Z,101736.45
2018-05-04T22:44:25.537Z,101740.13
2018-05-04T22:46:28.882Z,101714.58
2018-05-04T22:48:32.371Z,101738.50
2018-05-04T22:50:36.594Z,101737.61
2018-05-04T22:52:40.739Z,101742.00
2018-05-04T22:54:44.135Z,101748.25
2018-05-04T22:56:47.524Z,101743.16
2018-05-04T22:58:50.877Z,101746.66
2018-05-04T23:00:54.316Z,101743.78
2018-05-04T23:02:57.681Z,101745.37
2018-05-04T23:05:02.194Z,101734.80
2018-05-04T23:07:05.664Z,101734.36
2018-05-04T23:09:09.700Z,101739.70
2018-05-04T23:11:13.822Z,101739.48
2018-05-04T23:13:17.195Z,101735.91
2018-05-04T23:15:20.993Z,101747.91
2018-05-04T23:17:25.176Z,101743.26
2018-05-04T23:19:28.533Z,101742.41
2018-05-04T23:21:31.881Z,101735.86
2018-05-04T23:23:36.018Z,101736.48
2018-05-04T23:27:49.660Z,101739.80
2018-05-04T23:29:53.024Z,101744.00
2018-05-04T23:31:56.413Z,101732.69
2018-05-04T23:34:00.592Z,101733.03
2018-05-04T23:36:03.925Z,101736.75
2018-05-04T23:38:07.295Z,101741.80
2018-05-04T23:40:10.706Z,101737.55
2018-05-04T23:42:14.842Z,101731.66
2018-05-04T23:44:18.199Z,101745.16
2018-05-04T23:46:21.571Z,101742.94
2018-05-04T23:48:25.769Z,101738.77
2018-05-04T23:50:29.173Z,101745.40